sensor_id;sensor_type;location;lat;lon;timestamp;P1;durP1;ratioP1;P2;durP2;ratioP2
49071;SDS011;52656;52.610;10.236;2023-05-19T14:46:09;2.67;;;1.10;;
49071;SDS011;52656;52.610;10.236;2023-05-19T14:48:35;2.78;;;1.02;;
49071;SDS011;52656;52.610;10.236;2023-05-19T14:51:00;1.77;;;1.10;;
49071;SDS011;52656;52.610;10.236;2023-05-19T14:53:25;1.92;;;1.23;;
49071;SDS011;52656;52.610;10.236;2023-05-19T14:55:51;4.05;;;1.00;;
49071;SDS011;52656;52.610;10.236;2023-05-19T14:58:16;2.72;;;1.08;;
49071;SDS011;52656;52.610;10.236;2023-05-19T15:00:42;2.72;;;1.60;;
49071;SDS011;52656;52.610;10.236;2023-05-19T15:03:07;2.63;;;1.30;;
49071;SDS011;52656;52.610;10.236;2023-05-19T15:05:33;3.05;;;1.20;;
49071;SDS011;52656;52.610;10.236;2023-05-19T15:07:58;6.43;;;1.38;;
49071;SDS011;52656;52.610;10.236;2023-05-19T15:10:23;3.03;;;1.38;;
49071;SDS011;52656;52.610;10.236;2023-05-19T15:12:49;1.60;;;1.10;;
49071;SDS011;52656;52.610;10.236;2023-05-19T15:15:14;3.72;;;1.55;;
49071;SDS011;52656;52.610;10.236;2023-05-19T15:17:40;1.40;;;1.02;;
49071;SDS011;52656;52.610;10.236;2023-05-19T15:20:06;2.45;;;1.23;;
49071;SDS011;52656;52.610;10.236;2023-05-19T15:22:32;1.60;;;1.00;;
49071;SDS011;52656;52.610;10.236;2023-05-19T15:24:58;2.92;;;1.20;;
49071;SDS011;52656;52.610;10.236;2023-05-19T15:27:23;2.85;;;1.35;;
49071;SDS011;52656;52.610;10.236;2023-05-19T15:29:48;1.83;;;1.02;;
49071;SDS011;52656;52.610;10.236;2023-05-19T15:32:13;2.65;;;1.25;;
49071;SDS011;52656;52.610;10.236;2023-05-19T15:34:39;2.20;;;1.15;;
49071;SDS011;52656;52.610;10.236;2023-05-19T15:37:04;2.38;;;1.25;;
49071;SDS011;52656;52.610;10.236;2023-05-19T15:39:30;3.60;;;1.10;;
49071;SDS011;52656;52.610;10.236;2023-05-19T15:41:55;1.33;;;0.85;;
49071;SDS011;52656;52.610;10.236;2023-05-19T15:44:20;3.13;;;1.25;;
49071;SDS011;52656;52.610;10.236;2023-05-19T15:46:46;1.70;;;1.10;;
49071;SDS011;52656;52.610;10.236;2023-05-19T15:49:11;5.18;;;1.27;;
49071;SDS011;52656;52.610;10.236;2023-05-19T15:51:36;2.63;;;1.30;;
49071;SDS011;52656;52.610;10.236;2023-05-19T15:54:02;4.57;;;1.50;;
49071;SDS011;52656;52.610;10.236;2023-05-19T15:56:27;5.03;;;1.50;;
49071;SDS011;52656;52.610;10.236;2023-05-19T15:58:52;2.97;;;1.20;;
49071;SDS011;52656;52.610;10.236;2023-05-19T16:01:18;4.03;;;1.40;;
49071;SDS011;52656;52.610;10.236;2023-05-19T16:03:44;1.73;;;1.08;;
49071;SDS011;52656;52.610;10.236;2023-05-19T16:06:09;2.35;;;1.30;;
49071;SDS011;52656;52.610;10.236;2023-05-19T16:08:35;1.52;;;0.90;;
49071;SDS011;52656;52.610;10.236;2023-05-19T16:11:00;2.33;;;1.25;;
49071;SDS011;52656;52.610;10.236;2023-05-19T16:13:26;1.80;;;1.23;;
49071;SDS011;52656;52.610;10.236;2023-05-19T16:15:51;2.42;;;1.20;;
49071;SDS011;52656;52.610;10.236;2023-05-19T16:18:16;1.65;;;1.00;;
49071;SDS011;52656;52.610;10.236;2023-05-19T16:20:42;3.38;;;1.45;;
49071;SDS011;52656;52.610;10.236;2023-05-19T16:23:08;4.95;;;1.40;;
49071;SDS011;52656;52.610;10.236;2023-05-19T16:25:34;2.10;;;1.30;;
49071;SDS011;52656;52.610;10.236;2023-05-19T16:28:00;2.58;;;1.30;;
49071;SDS011;52656;52.610;10.236;2023-05-19T16:30:26;1.60;;;1.10;;
49071;SDS011;52656;52.610;10.236;2023-05-19T16:32:52;3.75;;;1.42;;
49071;SDS011;52656;52.610;10.236;2023-05-19T16:35:18;4.47;;;1.10;;
49071;SDS011;52656;52.610;10.236;2023-05-19T16:37:47;1.95;;;1.13;;
49071;SDS011;52656;52.610;10.236;2023-05-19T16:40:13;1.92;;;1.23;;
49071;SDS011;52656;52.610;10.236;2023-05-19T16:42:38;2.20;;;1.15;;
49071;SDS011;52656;52.610;10.236;2023-05-19T16:45:04;2.75;;;1.45;;
49071;SDS011;52656;52.610;10.236;2023-05-19T16:47:29;2.70;;;1.40;;
49071;SDS011;52656;52.610;10.236;2023-05-19T16:49:55;1.58;;;0.98;;
49071;SDS011;52656;52.610;10.236;2023-05-19T16:52:20;4.97;;;1.38;;
49071;SDS011;52656;52.610;10.236;2023-05-19T16:54:45;1.88;;;1.10;;
49071;SDS011;52656;52.610;10.236;2023-05-19T16:57:11;4.07;;;1.10;;
49071;SDS011;52656;52.610;10.236;2023-05-19T16:59:38;2.95;;;1.35;;
49071;SDS011;52656;52.610;10.236;2023-05-19T17:02:04;1.80;;;1.17;;
49071;SDS011;52656;52.610;10.236;2023-05-19T17:04:31;2.53;;;1.40;;
49071;SDS011;52656;52.610;10.236;2023-05-19T17:06:56;2.03;;;1.40;;
49071;SDS011;52656;52.610;10.236;2023-05-19T17:09:21;4.18;;;1.70;;
49071;SDS011;52656;52.610;10.236;2023-05-19T17:11:50;1.92;;;1.20;;
49071;SDS011;52656;52.610;10.236;2023-05-19T17:14:18;2.42;;;1.20;;
49071;SDS011;52656;52.610;10.236;2023-05-19T17:16:44;1.30;;;0.90;;
49071;SDS011;52656;52.610;10.236;2023-05-19T17:19:10;2.97;;;1.30;;
49071;SDS011;52656;52.610;10.236;2023-05-19T17:21:36;3.92;;;1.80;;
49071;SDS011;52656;52.610;10.236;2023-05-19T17:24:01;4.10;;;1.33;;
49071;SDS011;52656;52.610;10.236;2023-05-19T17:26:27;4.40;;;1.58;;
49071;SDS011;52656;52.610;10.236;2023-05-19T17:28:52;2.85;;;1.20;;
49071;SDS011;52656;52.610;10.236;2023-05-19T17:31:17;3.85;;;1.35;;
49071;SDS011;52656;52.610;10.236;2023-05-19T17:33:43;3.20;;;1.40;;
49071;SDS011;52656;52.610;10.236;2023-05-19T17:36:08;2.40;;;1.17;;
49071;SDS011;52656;52.610;10.236;2023-05-19T17:38:34;2.58;;;1.33;;
49071;SDS011;52656;52.610;10.236;2023-05-19T17:41:03;4.78;;;1.45;;
49071;SDS011;52656;52.610;10.236;2023-05-19T17:43:34;3.35;;;1.45;;
49071;SDS011;52656;52.610;10.236;2023-05-19T17:46:00;2.47;;;0.90;;
49071;SDS011;52656;52.610;10.236;2023-05-19T17:48:26;3.05;;;1.33;;
49071;SDS011;52656;52.610;10.236;2023-05-19T17:50:51;1.73;;;1.20;;
49071;SDS011;52656;52.610;10.236;2023-05-19T17:55:42;1.75;;;1.10;;
49071;SDS011;52656;52.610;10.236;2023-05-19T17:58:14;3.72;;;1.50;;
49071;SDS011;52656;52.610;10.236;2023-05-19T18:00:40;2.40;;;1.23;;
49071;SDS011;52656;52.610;10.236;2023-05-19T18:03:05;1.00;;;0.85;;
49071;SDS011;52656;52.610;10.236;2023-05-19T18:05:31;2.58;;;1.50;;
49071;SDS011;52656;52.610;10.236;2023-05-19T18:07:58;3.15;;;1.35;;
49071;SDS011;52656;52.610;10.236;2023-05-19T18:10:27;2.47;;;1.38;;
49071;SDS011;52656;52.610;10.236;2023-05-19T18:12:53;1.92;;;1.20;;
49071;SDS011;52656;52.610;10.236;2023-05-19T18:15:19;1.90;;;1.13;;
49071;SDS011;52656;52.610;10.236;2023-05-19T18:17:44;1.73;;;1.20;;
49071;SDS011;52656;52.610;10.236;2023-05-19T18:20:10;2.95;;;1.42;;
49071;SDS011;52656;52.610;10.236;2023-05-19T18:22:36;4.28;;;1.70;;
49071;SDS011;52656;52.610;10.236;2023-05-19T18:25:01;1.80;;;1.20;;
49071;SDS011;52656;52.610;10.236;2023-05-19T18:27:26;1.67;;;1.10;;
49071;SDS011;52656;52.610;10.236;2023-05-19T18:29:52;3.28;;;1.10;;
49071;SDS011;52656;52.610;10.236;2023-05-19T18:32:17;1.85;;;1.02;;
49071;SDS011;52656;52.610;10.236;2023-05-19T18:37:08;5.75;;;1.58;;
49071;SDS011;52656;52.610;10.236;2023-05-19T18:39:33;5.72;;;1.67;;
49071;SDS011;52656;52.610;10.236;2023-05-19T18:44:24;3.38;;;1.50;;
49071;SDS011;52656;52.610;10.236;2023-05-19T18:46:49;1.90;;;1.08;;
49071;SDS011;52656;52.610;10.236;2023-05-19T18:51:40;4.55;;;1.10;;
49071;SDS011;52656;52.610;10.236;2023-05-19T18:54:06;1.27;;;0.70;;
49071;SDS011;52656;52.610;10.236;2023-05-19T18:56:31;2.28;;;1.27;;
49071;SDS011;52656;52.610;10.236;2023-05-19T19:01:22;4.47;;;1.17;;
49071;SDS011;52656;52.610;10.236;2023-05-19T19:06:13;4.22;;;1.75;;
49071;SDS011;52656;52.610;10.236;2023-05-19T19:08:41;2.60;;;1.30;;
49071;SDS011;52656;52.610;10.236;2023-05-19T19:13:35;2.90;;;1.40;;
49071;SDS011;52656;52.610;10.236;2023-05-19T19:18:26;2.08;;;1.40;;
49071;SDS011;52656;52.610;10.236;2023-05-19T19:23:16;4.43;;;1.50;;
49071;SDS011;52656;52.610;10.236;2023-05-19T19:28:07;3.72;;;1.58;;
49071;SDS011;52656;52.610;10.236;2023-05-19T19:32:58;2.97;;;1.55;;
49071;SDS011;52656;52.610;10.236;2023-05-19T19:37:49;2.22;;;0.95;;
49071;SDS011;52656;52.610;10.236;2023-05-19T19:40:15;2.25;;;1.20;;
49071;SDS011;52656;52.610;10.236;2023-05-19T19:45:06;3.40;;;1.58;;
49071;SDS011;52656;52.610;10.236;2023-05-19T19:49:57;4.03;;;1.33;;
49071;SDS011;52656;52.610;10.236;2023-05-19T19:52:29;4.90;;;1.40;;
49071;SDS011;52656;52.610;10.236;2023-05-19T19:57:21;2.70;;;1.40;;
49071;SDS011;52656;52.610;10.236;2023-05-19T20:02:18;3.63;;;1.50;;
49071;SDS011;52656;52.610;10.236;2023-05-19T20:07:10;2.50;;;1.58;;
49071;SDS011;52656;52.610;10.236;2023-05-19T20:12:01;4.03;;;1.80;;
49071;SDS011;52656;52.610;10.236;2023-05-19T20:16:52;3.10;;;1.93;;
49071;SDS011;52656;52.610;10.236;2023-05-19T20:21:42;2.77;;;1.77;;
49071;SDS011;52656;52.610;10.236;2023-05-19T20:26:33;7.95;;;3.00;;
49071;SDS011;52656;52.610;10.236;2023-05-19T20:31:24;9.70;;;4.82;;
49071;SDS011;52656;52.610;10.236;2023-05-19T20:36:15;5.18;;;3.17;;
49071;SDS011;52656;52.610;10.236;2023-05-19T20:41:05;4.40;;;1.95;;
49071;SDS011;52656;52.610;10.236;2023-05-19T20:43:31;3.30;;;1.80;;
49071;SDS011;52656;52.610;10.236;2023-05-19T20:48:23;4.22;;;2.25;;
49071;SDS011;52656;52.610;10.236;2023-05-19T20:53:14;2.85;;;1.50;;
49071;SDS011;52656;52.610;10.236;2023-05-19T20:55:42;4.65;;;2.10;;
49071;SDS011;52656;52.610;10.236;2023-05-19T20:58:08;6.10;;;1.95;;
49071;SDS011;52656;52.610;10.236;2023-05-19T21:02:58;4.00;;;1.83;;
49071;SDS011;52656;52.610;10.236;2023-05-19T21:07:49;3.42;;;1.80;;
49071;SDS011;52656;52.610;10.236;2023-05-19T21:12:41;3.70;;;1.73;;
49071;SDS011;52656;52.610;10.236;2023-05-19T21:15:07;4.72;;;2.20;;
49071;SDS011;52656;52.610;10.236;2023-05-19T21:17:33;3.63;;;1.80;;
49071;SDS011;52656;52.610;10.236;2023-05-19T21:19:58;5.32;;;1.85;;
49071;SDS011;52656;52.610;10.236;2023-05-19T21:24:50;2.75;;;1.80;;
49071;SDS011;52656;52.610;10.236;2023-05-19T21:29:41;4.20;;;2.03;;
49071;SDS011;52656;52.610;10.236;2023-05-19T21:32:06;2.70;;;1.77;;
49071;SDS011;52656;52.610;10.236;2023-05-19T21:36:57;3.15;;;2.00;;
49071;SDS011;52656;52.610;10.236;2023-05-19T21:39:22;4.13;;;2.20;;
49071;SDS011;52656;52.610;10.236;2023-05-19T21:44:13;3.30;;;1.65;;
49071;SDS011;52656;52.610;10.236;2023-05-19T21:46:38;3.03;;;1.80;;
49071;SDS011;52656;52.610;10.236;2023-05-19T21:51:28;3.90;;;1.88;;
49071;SDS011;52656;52.610;10.236;2023-05-19T21:53:55;2.90;;;1.65;;
49071;SDS011;52656;52.610;10.236;2023-05-19T21:58:46;3.60;;;2.00;;
49071;SDS011;52656;52.610;10.236;2023-05-19T22:01:11;5.78;;;2.20;;
49071;SDS011;52656;52.610;10.236;2023-05-19T22:06:02;4.95;;;1.90;;
49071;SDS011;52656;52.610;10.236;2023-05-19T22:08:30;4.05;;;1.90;;
49071;SDS011;52656;52.610;10.236;2023-05-19T22:13:20;3.70;;;1.80;;
49071;SDS011;52656;52.610;10.236;2023-05-19T22:15:45;3.10;;;1.50;;
49071;SDS011;52656;52.610;10.236;2023-05-19T22:20:36;2.72;;;1.67;;
49071;SDS011;52656;52.610;10.236;2023-05-19T22:25:27;2.53;;;1.50;;
49071;SDS011;52656;52.610;10.236;2023-05-19T22:27:53;4.20;;;2.17;;
49071;SDS011;52656;52.610;10.236;2023-05-19T22:30:18;2.40;;;1.40;;
49071;SDS011;52656;52.610;10.236;2023-05-19T22:35:09;2.80;;;1.55;;
49071;SDS011;52656;52.610;10.236;2023-05-19T22:37:36;2.78;;;1.63;;
49071;SDS011;52656;52.610;10.236;2023-05-19T22:40:01;1.98;;;1.30;;
49071;SDS011;52656;52.610;10.236;2023-05-19T22:42:27;1.42;;;0.98;;
49071;SDS011;52656;52.610;10.236;2023-05-19T22:47:17;3.35;;;1.45;;
49071;SDS011;52656;52.610;10.236;2023-05-19T22:49:43;3.60;;;1.48;;
49071;SDS011;52656;52.610;10.236;2023-05-19T22:52:09;3.30;;;1.73;;
49071;SDS011;52656;52.610;10.236;2023-05-19T22:54:35;2.17;;;1.35;;
49071;SDS011;52656;52.610;10.236;2023-05-19T22:57:00;2.33;;;1.30;;
49071;SDS011;52656;52.610;10.236;2023-05-19T22:59:27;2.15;;;1.50;;
49071;SDS011;52656;52.610;10.236;2023-05-19T23:01:52;6.10;;;2.47;;
49071;SDS011;52656;52.610;10.236;2023-05-19T23:04:17;4.75;;;1.52;;
49071;SDS011;52656;52.610;10.236;2023-05-19T23:06:43;2.70;;;1.30;;
49071;SDS011;52656;52.610;10.236;2023-05-19T23:09:08;3.30;;;1.40;;
49071;SDS011;52656;52.610;10.236;2023-05-19T23:11:33;2.35;;;1.10;;
49071;SDS011;52656;52.610;10.236;2023-05-19T23:13:59;2.17;;;1.20;;
49071;SDS011;52656;52.610;10.236;2023-05-19T23:16:25;2.63;;;1.35;;
49071;SDS011;52656;52.610;10.236;2023-05-19T23:21:16;2.85;;;1.50;;
49071;SDS011;52656;52.610;10.236;2023-05-19T23:23:41;1.45;;;1.00;;
49071;SDS011;52656;52.610;10.236;2023-05-19T23:26:06;2.30;;;1.38;;
49071;SDS011;52656;52.610;10.236;2023-05-19T23:30:57;2.63;;;1.25;;
49071;SDS011;52656;52.610;10.236;2023-05-19T23:33:22;1.70;;;0.88;;
49071;SDS011;52656;52.610;10.236;2023-05-19T23:35:48;2.63;;;1.20;;
49071;SDS011;52656;52.610;10.236;2023-05-19T23:38:13;1.17;;;1.02;;
49071;SDS011;52656;52.610;10.236;2023-05-19T23:40:39;2.08;;;1.23;;
49071;SDS011;52656;52.610;10.236;2023-05-19T23:43:04;2.13;;;1.20;;
49071;SDS011;52656;52.610;10.236;2023-05-19T23:45:30;2.60;;;1.52;;
49071;SDS011;52656;52.610;10.236;2023-05-19T23:47:56;5.78;;;1.60;;
49071;SDS011;52656;52.610;10.236;2023-05-19T23:50:21;3.33;;;1.48;;
49071;SDS011;52656;52.610;10.236;2023-05-19T23:52:46;3.53;;;1.20;;
49071;SDS011;52656;52.610;10.236;2023-05-19T23:55:12;2.03;;;1.25;;
49071;SDS011;52656;52.610;10.236;2023-05-19T23:57:38;2.83;;;1.17;;
